Portada
METAR-TAF:

METAR-TAF

Aeroports :

Buriram, Tailàndia

latitud: 15-13-46N, longitud: 103-15-04E, altitud: 180 m

Observació

L'informe es va fer fa 26 minuts, a les 22:00 UTC
Vent 3 kt del Oest/Sud-Oest
Temperatura 25°C
Humitat 94%
Pressió 1011 hPa
Visibilitat: 7000 m

METAR: VTUO 122200Z 24003KT 7000 NSC 25/24 Q1011 NOSIG

Hora: 05:26 (22:26 UTC)

Pronòstic

L'informe es va fer fa 5 hores i 26 minuts, a les 17:00 UTC
Pronòstic vàlid del 12 a les 18 UTC al 13 a les 18 UTC
Vent 5 kt del Oest/Sud-Oest
Visibilitat: 9000 m
Escasses núvols a una alçada de 4000 ft

TAF: VTUO 121700Z 1218/1318 24005KT 9000 FEW040

Observacions i pronòstics meteorològics de més de 4000 aeroports (METAR i TAF).

Les estacions disponibles són els punts grocs i vermells al mapa.

Posi el ratolí al punt desitjat per veure el nom de l'estació.

Feu clic per veure les observacions i els pronòstics meteorològics.

Per canviar el mapa: feu clic els botons verds amb una creu de color negre per apropar; al botó verd amb un guió per allunyar la imatge; o en les fletxes verdes per a mapes adjacents.


METAR-TAF: